Time;durP1;ratioP1;P1;durP2;ratioP2;P2;SDS_P1;SDS_P2;PMS_P1;PMS_P2;Temp;Humidity;BMP_temperature;BMP_pressure;BME280_temperature;BME280_humidity;BME280_pressure;Samples;Min_cycle;Max_cycle;Signal;HPM_P1;HPM_P2
2022/10/22 00:01:04;;;;;;;0.83;0.70;;;24.70;71.10;;;;;;5093768;28;20464;-92
2022/10/22 00:03:32;;;;;;;0.80;0.80;;;24.70;71.10;;;;;;5075943;28;20789;-91
2022/10/22 00:05:59;;;;;;;1.77;0.80;;;24.70;71.10;;;;;;5093833;28;20448;-89
2022/10/22 00:08:26;;;;;;;0.93;0.83;;;24.70;71.10;;;;;;5093229;28;20453;-92
2022/10/22 00:10:53;;;;;;;0.80;0.80;;;24.70;71.00;;;;;;5075602;28;20442;-91
2022/10/22 00:13:22;;;;;;;0.90;0.80;;;24.70;71.10;;;;;;5093307;28;20448;-89
2022/10/22 00:15:49;;;;;;;0.80;0.80;;;24.70;71.00;;;;;;5093555;28;20437;-89
2022/10/22 00:18:16;;;;;;;1.17;1.07;;;24.70;71.10;;;;;;5093705;28;20848;-91
2022/10/22 00:20:43;;;;;;;1.00;0.90;;;24.70;71.00;;;;;;5093672;28;20449;-90
2022/10/22 00:23:10;;;;;;;1.10;1.00;;;24.70;71.00;;;;;;5093714;28;20444;-89
2022/10/22 00:25:37;;;;;;;0.90;0.80;;;24.70;71.00;;;;;;5093741;28;20436;-91
2022/10/22 00:28:04;;;;;;;0.90;0.83;;;24.80;71.10;;;;;;5093344;28;20516;-91
2022/10/22 00:30:32;;;;;;;0.90;0.80;;;24.70;70.90;;;;;;5095328;28;20464;-89
2022/10/22 00:32:59;;;;;;;1.10;1.00;;;24.70;70.90;;;;;;5097270;28;20918;-89
2022/10/22 00:35:26;;;;;;;1.63;1.00;;;24.70;70.90;;;;;;5097432;28;20451;-92
2022/10/22 00:37:53;;;;;;;0.83;0.80;;;24.70;70.90;;;;;;5097604;28;20827;-91
2022/10/22 00:40:20;;;;;;;1.63;1.53;;;24.70;70.90;;;;;;5097369;28;20433;-91
2022/10/22 00:42:46;;;;;;;1.00;0.90;;;24.70;70.90;;;;;;5097242;28;20440;-89
2022/10/22 00:45:19;;;;;;;1.03;0.93;;;24.70;70.80;;;;;;5097114;28;20434;-90
2022/10/22 00:47:53;;;;;;;1.10;0.77;;;24.70;70.80;;;;;;5097471;28;20435;-91
2022/10/22 00:50:24;;;;;;;1.00;0.90;;;24.70;70.90;;;;;;5097374;28;20493;-91
2022/10/22 00:52:52;;;;;;;1.00;0.90;;;24.70;70.80;;;;;;5097146;28;20456;-91
2022/10/22 00:55:20;;;;;;;0.90;0.80;;;24.70;70.80;;;;;;5096904;28;20455;-88
2022/10/22 00:57:47;;;;;;;1.10;1.00;;;24.60;70.70;;;;;;5096828;28;20491;-91
2022/10/22 01:00:15;;;;;;;1.00;0.90;;;24.70;70.80;;;;;;5078859;28;20464;-90
2022/10/22 01:02:42;;;;;;;1.00;0.90;;;24.70;70.80;;;;;;5096639;28;20445;-90
2022/10/22 01:05:11;;;;;;;1.17;0.90;;;24.60;70.70;;;;;;5079063;28;20441;-90
2022/10/22 01:07:42;;;;;;;1.00;0.90;;;24.70;70.80;;;;;;5096503;28;20447;-89
2022/10/22 01:10:24;;;;;;;0.80;0.70;;;24.60;70.70;;;;;;5096846;28;20429;-89
2022/10/22 01:13:01;;;;;;;0.80;0.80;;;24.70;70.80;;;;;;5096515;28;20425;-91
2022/10/22 01:15:36;;;;;;;0.80;0.80;;;24.60;70.70;;;;;;5096381;28;20437;-92
2022/10/22 01:18:09;;;;;;;1.00;0.90;;;24.70;70.80;;;;;;5079340;28;20468;-91
2022/10/22 01:21:03;;;;;;;1.10;1.00;;;24.60;70.70;;;;;;5096651;28;20776;-91
2022/10/22 01:24:00;;;;;;;1.10;1.00;;;24.60;70.50;;;;;;5093179;28;20461;-89
2022/10/22 01:26:37;;;;;;;1.80;0.90;;;24.70;70.70;;;;;;5096437;28;20441;-91
2022/10/22 01:29:11;;;;;;;1.00;0.90;;;24.60;70.70;;;;;;5096116;28;20464;-91
2022/10/22 01:31:43;;;;;;;0.90;0.80;;;24.60;70.70;;;;;;5096479;28;20438;-91
2022/10/22 01:34:14;;;;;;;1.20;1.10;;;24.70;70.80;;;;;;5096335;28;20502;-89
2022/10/22 01:36:42;;;;;;;0.87;0.80;;;24.60;70.70;;;;;;5096106;28;20453;-89
2022/10/22 01:39:10;;;;;;;1.00;0.80;;;24.60;71.50;;;;;;5078343;28;20484;-89
2022/10/22 01:41:39;;;;;;;0.90;0.90;;;24.60;70.70;;;;;;5095220;28;20935;-89
2022/10/22 01:44:22;;;;;;;0.90;0.80;;;24.60;70.60;;;;;;5095923;28;20513;-88
2022/10/22 01:46:51;;;;;;;0.90;0.80;;;24.60;70.70;;;;;;5096318;28;20442;-89
2022/10/22 01:49:33;;;;;;;1.07;0.97;;;24.60;70.70;;;;;;5095830;28;20478;-91
2022/10/22 01:52:06;;;;;;;1.00;0.90;;;24.60;70.60;;;;;;5096182;28;20444;-89
2022/10/22 01:54:41;;;;;;;1.00;0.90;;;24.60;70.60;;;;;;5095523;28;20445;-91
2022/10/22 01:57:17;;;;;;;1.10;0.80;;;24.60;70.60;;;;;;5096007;28;20437;-90
2022/10/22 01:59:53;;;;;;;1.20;1.10;;;24.60;70.60;;;;;;5095511;28;20487;-90
2022/10/22 02:02:31;;;;;;;0.80;0.80;;;24.60;70.60;;;;;;5095818;28;20468;-89
2022/10/22 02:05:03;;;;;;;0.80;0.80;;;24.60;70.50;;;;;;5095716;28;20437;-90
2022/10/22 02:07:35;;;;;;;0.97;0.87;;;24.60;70.60;;;;;;5095662;28;20939;-87
2022/10/22 02:10:04;;;;;;;0.87;0.80;;;24.60;70.50;;;;;;5095606;28;20438;-89
2022/10/22 02:12:32;;;;;;;0.90;0.80;;;24.50;70.40;;;;;;5077541;28;20920;-87
2022/10/22 02:15:02;;;;;;;1.20;1.10;;;24.60;70.50;;;;;;5095461;28;20441;-87
2022/10/22 02:17:33;;;;;;;1.00;0.90;;;24.60;70.50;;;;;;5095685;28;20450;-87
2022/10/22 02:20:03;;;;;;;1.00;0.90;;;24.60;70.50;;;;;;5095425;28;20490;-87
2022/10/22 02:22:30;;;;;;;1.20;1.00;;;24.70;70.50;;;;;;5095477;28;20447;-87
2022/10/22 02:24:57;;;;;;;1.00;0.90;;;24.60;70.40;;;;;;5077428;28;20453;-90
2022/10/22 02:27:30;;;;;;;1.13;1.03;;;24.60;70.50;;;;;;5095129;28;20434;-89
2022/10/22 02:30:02;;;;;;;1.33;1.03;;;24.60;70.40;;;;;;5077593;28;20479;-89
2022/10/22 02:32:33;;;;;;;0.80;0.70;;;24.60;70.40;;;;;;5095338;28;20452;-90
2022/10/22 02:35:01;;;;;;;1.00;0.90;;;24.60;70.40;;;;;;5095404;28;20791;-87
2022/10/22 02:37:29;;;;;;;1.10;1.00;;;24.60;70.40;;;;;;5095223;28;20436;-90
2022/10/22 02:39:56;;;;;;;1.30;1.20;;;24.60;70.30;;;;;;5094911;28;21020;-88
2022/10/22 02:42:24;;;;;;;1.17;1.07;;;24.60;70.40;;;;;;5077054;28;20506;-89
2022/10/22 02:44:51;;;;;;;1.10;1.00;;;24.70;70.40;;;;;;5095015;28;20481;-89
2022/10/22 02:47:20;;;;;;;1.07;0.97;;;24.60;70.30;;;;;;5076899;28;20441;-87
2022/10/22 02:49:47;;;;;;;1.53;1.30;;;24.60;70.40;;;;;;5094621;28;20453;-90
2022/10/22 02:52:13;;;;;;;1.30;1.20;;;24.50;70.20;;;;;;5094979;28;20467;-89
2022/10/22 02:54:40;;;;;;;1.10;1.00;;;24.50;70.20;;;;;;5094497;28;20448;-87
2022/10/22 02:57:07;;;;;;;1.63;1.00;;;24.60;70.30;;;;;;5094814;28;20539;-88
2022/10/22 02:59:34;;;;;;;1.10;1.00;;;24.70;70.40;;;;;;5094502;28;20492;-88
2022/10/22 03:02:01;;;;;;;1.20;1.10;;;24.50;70.20;;;;;;5094873;28;20443;-87
2022/10/22 03:04:30;;;;;;;1.00;0.90;;;24.60;70.20;;;;;;5094318;28;20927;-87
2022/10/22 03:06:57;;;;;;;1.10;0.90;;;24.60;71.10;;;;;;5094671;28;20449;-90
2022/10/22 03:09:24;;;;;;;1.13;0.90;;;24.50;70.10;;;;;;5094624;28;20442;-89
2022/10/22 03:11:51;;;;;;;1.00;0.90;;;24.50;70.10;;;;;;5094319;28;20806;-87
2022/10/22 03:14:18;;;;;;;0.83;0.80;;;24.70;70.30;;;;;;5094620;28;20796;-90
2022/10/22 03:16:45;;;;;;;1.10;1.00;;;24.50;70.10;;;;;;5094157;28;20981;-89
2022/10/22 03:19:12;;;;;;;2.23;1.00;;;24.70;70.30;;;;;;5094506;28;20491;-89
2022/10/22 03:21:45;;;;;;;1.10;1.00;;;24.50;70.10;;;;;;5094491;28;20440;-87
2022/10/22 03:24:15;;;;;;;0.90;0.80;;;24.50;70.10;;;;;;5094287;28;20948;-88
2022/10/22 03:26:44;;;;;;;1.33;1.23;;;24.50;70.10;;;;;;5093999;28;20437;-89
2022/10/22 03:29:14;;;;;;;1.03;0.93;;;24.50;70.10;;;;;;5094152;28;20453;-87
2022/10/22 03:31:41;;;;;;;1.30;1.20;;;24.50;70.00;;;;;;5094197;28;20433;-87
2022/10/22 03:34:10;;;;;;;1.13;1.03;;;24.50;70.10;;;;;;5094146;28;20438;-88
2022/10/22 03:36:38;;;;;;;1.00;0.90;;;24.50;70.00;;;;;;5076106;28;20454;-87
2022/10/22 03:39:07;;;;;;;1.30;1.20;;;24.50;70.00;;;;;;5094077;28;21001;-87
2022/10/22 03:41:35;;;;;;;1.00;0.90;;;24.50;70.00;;;;;;5093839;28;20449;-87
2022/10/22 03:44:04;;;;;;;1.00;0.90;;;24.50;70.00;;;;;;5075981;28;20486;-87
2022/10/22 03:46:31;;;;;;;1.00;0.90;;;24.50;70.00;;;;;;5094041;28;20808;-87
2022/10/22 03:48:58;;;;;;;1.00;0.90;;;24.50;70.00;;;;;;5093676;28;20445;-90
2022/10/22 03:51:26;;;;;;;1.20;1.10;;;24.50;69.90;;;;;;5094082;28;20454;-89
2022/10/22 03:53:53;;;;;;;0.80;0.80;;;24.50;69.90;;;;;;5075728;28;20441;-90
2022/10/22 03:56:22;;;;;;;1.13;1.03;;;24.50;69.90;;;;;;5093903;28;20441;-88
2022/10/22 03:58:49;;;;;;;1.20;1.10;;;24.50;69.90;;;;;;5093892;28;20483;-89
2022/10/22 04:01:16;;;;;;;1.03;0.93;;;24.50;69.90;;;;;;5093669;28;20452;-90
2022/10/22 04:03:42;;;;;;;1.10;1.00;;;24.50;69.80;;;;;;5093745;28;20469;-87
2022/10/22 04:06:11;;;;;;;1.07;0.97;;;24.50;69.80;;;;;;5093096;28;20802;-87
2022/10/22 04:08:39;;;;;;;1.17;1.07;;;24.50;69.80;;;;;;5093902;28;20446;-87
2022/10/22 04:11:06;;;;;;;0.87;0.80;;;24.50;69.80;;;;;;5093780;28;20442;-87
2022/10/22 04:13:35;;;;;;;1.20;1.10;;;24.50;69.80;;;;;;5075581;28;20447;-88
2022/10/22 04:16:09;;;;;;;1.13;0.90;;;24.50;69.80;;;;;;5093767;28;20455;-87
2022/10/22 04:18:36;;;;;;;1.20;1.10;;;24.50;69.80;;;;;;5093595;28;20442;-89
2022/10/22 04:21:04;;;;;;;1.10;1.00;;;24.50;69.80;;;;;;5093543;28;20449;-87
2022/10/22 04:23:31;;;;;;;1.10;1.00;;;24.40;69.70;;;;;;5093301;28;20456;-88
2022/10/22 04:25:59;;;;;;;0.93;0.83;;;24.70;70.00;;;;;;5093641;28;20451;-89
2022/10/22 04:28:26;;;;;;;1.10;1.00;;;24.50;69.80;;;;;;5075769;28;20447;-89
2022/10/22 04:30:54;;;;;;;1.27;1.17;;;24.50;69.70;;;;;;5093388;28;20461;-87
2022/10/22 04:33:21;;;;;;;1.00;0.90;;;24.50;69.70;;;;;;5093179;28;20447;-86
2022/10/22 04:35:48;;;;;;;1.20;1.10;;;24.50;69.70;;;;;;5093322;28;20455;-87
2022/10/22 04:38:16;;;;;;;0.90;0.80;;;24.50;69.70;;;;;;5093519;28;20443;-88
2022/10/22 04:40:42;;;;;;;1.10;1.00;;;24.50;69.70;;;;;;5093446;28;20490;-88
2022/10/22 04:43:09;;;;;;;1.00;0.90;;;24.50;69.70;;;;;;5093136;28;20816;-90
2022/10/22 04:45:37;;;;;;;1.10;1.00;;;24.50;69.70;;;;;;5093159;28;20449;-87
2022/10/22 04:48:06;;;;;;;1.10;1.00;;;24.40;69.60;;;;;;5093490;28;20462;-87
2022/10/22 04:50:33;;;;;;;1.00;0.90;;;24.40;69.60;;;;;;5075415;28;20448;-88
2022/10/22 04:53:00;;;;;;;1.10;1.00;;;24.40;69.60;;;;;;5093080;28;20539;-90
2022/10/22 04:55:26;;;;;;;1.00;0.90;;;24.40;69.50;;;;;;5075285;28;20451;-89
2022/10/22 04:57:53;;;;;;;1.10;1.00;;;24.40;69.50;;;;;;5093103;28;20445;-88
2022/10/22 05:00:20;;;;;;;1.00;0.90;;;24.40;69.50;;;;;;5092941;28;20835;-87
2022/10/22 05:02:50;;;;;;;2.20;0.70;;;24.40;69.60;;;;;;5093082;28;20809;-87
2022/10/22 05:05:18;;;;;;;1.10;1.00;;;24.40;69.60;;;;;;5093245;28;20448;-90
2022/10/22 05:07:45;;;;;;;0.83;0.80;;;24.40;69.50;;;;;;5092877;28;20449;-87
2022/10/22 05:10:12;;;;;;;1.00;0.90;;;24.40;69.50;;;;;;5093098;28;20812;-87
2022/10/22 05:12:39;;;;;;;1.10;1.00;;;24.40;69.50;;;;;;5092900;28;20787;-87
2022/10/22 05:15:07;;;;;;;1.00;0.80;;;24.40;69.50;;;;;;5093128;28;20442;-87
2022/10/22 05:17:36;;;;;;;1.10;1.00;;;24.40;69.50;;;;;;5094889;28;20451;-87
2022/10/22 05:20:03;;;;;;;1.13;0.97;;;24.40;69.50;;;;;;5096728;28;20484;-87
2022/10/22 05:22:33;;;;;;;0.90;0.80;;;24.40;69.50;;;;;;5096858;28;20791;-90
2022/10/22 05:25:00;;;;;;;1.00;0.90;;;24.40;70.40;;;;;;5096583;28;20453;-90
2022/10/22 05:27:27;;;;;;;1.10;1.00;;;24.40;69.60;;;;;;5096477;28;20440;-90
2022/10/22 05:29:53;;;;;;;1.10;1.00;;;24.40;69.50;;;;;;5096445;28;20468;-87
2022/10/22 05:32:20;;;;;;;1.10;1.00;;;24.40;69.50;;;;;;5096222;28;20927;-89
2022/10/22 05:34:47;;;;;;;1.00;0.90;;;24.40;69.50;;;;;;5078309;28;20441;-90
2022/10/22 05:37:14;;;;;;;1.10;0.90;;;24.40;69.50;;;;;;5061589;28;20453;-87
2022/10/22 05:39:42;;;;;;;2.93;1.30;;;24.40;69.50;;;;;;5096022;28;20488;-90
2022/10/22 05:42:09;;;;;;;1.13;1.03;;;24.40;69.50;;;;;;5096054;28;20448;-89
2022/10/22 05:44:37;;;;;;;0.87;0.87;;;24.40;69.50;;;;;;5095976;28;20481;-87
2022/10/22 05:47:04;;;;;;;1.00;0.90;;;24.40;69.50;;;;;;5096007;28;20943;-88
2022/10/22 05:49:31;;;;;;;1.00;0.90;;;24.40;69.50;;;;;;5077939;28;20443;-89
2022/10/22 05:51:58;;;;;;;0.87;0.87;;;24.40;69.50;;;;;;5078118;28;20450;-90
2022/10/22 05:54:25;;;;;;;1.10;1.00;;;24.40;70.40;;;;;;5096120;28;20449;-89
2022/10/22 05:56:54;;;;;;;0.90;0.80;;;24.40;69.50;;;;;;5078003;28;20451;-88
2022/10/22 05:59:21;;;;;;;0.97;0.87;;;24.40;69.50;;;;;;5095892;28;20577;-90
2022/10/22 06:01:48;;;;;;;0.90;0.80;;;24.40;69.50;;;;;;5095884;28;20436;-89
2022/10/22 06:04:16;;;;;;;0.90;0.90;;;24.40;69.50;;;;;;5095892;28;20443;-90
2022/10/22 06:06:45;;;;;;;0.97;0.90;;;24.40;69.50;;;;;;5095670;28;20437;-88
2022/10/22 06:09:17;;;;;;;2.40;1.00;;;24.40;69.50;;;;;;5095769;28;20478;-88
2022/10/22 06:11:45;;;;;;;0.80;0.80;;;24.40;69.50;;;;;;5095853;28;20436;-88
2022/10/22 06:14:14;;;;;;;1.40;1.30;;;24.40;69.60;;;;;;5095814;28;20443;-88
2022/10/22 06:16:42;;;;;;;0.80;0.73;;;24.40;69.50;;;;;;5095752;28;20445;-89
2022/10/22 06:19:11;;;;;;;0.80;0.80;;;24.40;69.60;;;;;;5095049;28;20439;-87
2022/10/22 06:21:38;;;;;;;1.00;0.90;;;24.40;69.60;;;;;;5095469;28;20442;-87
2022/10/22 06:24:05;;;;;;;0.80;0.80;;;24.40;69.60;;;;;;5095576;28;20443;-88
2022/10/22 06:26:32;;;;;;;0.80;0.80;;;24.40;69.50;;;;;;5095531;28;20444;-88
2022/10/22 06:28:59;;;;;;;1.10;1.00;;;24.30;69.40;;;;;;5094961;28;20495;-88
2022/10/22 06:31:28;;;;;;;1.00;0.90;;;24.40;69.60;;;;;;5081692;28;20453;-90
2022/10/22 06:33:56;;;;;;;1.17;0.90;;;24.40;69.60;;;;;;5077271;28;20925;-90
2022/10/22 06:36:24;;;;;;;1.00;0.90;;;24.40;69.60;;;;;;5083860;28;20477;-88
2022/10/22 06:38:52;;;;;;;0.93;0.80;;;24.40;69.60;;;;;;5074720;28;20437;-87
2022/10/22 06:41:20;;;;;;;0.87;0.80;;;24.40;69.60;;;;;;5074321;28;20484;-90
2022/10/22 06:43:47;;;;;;;1.10;0.90;;;24.40;69.60;;;;;;5074568;28;20470;-89
2022/10/22 06:46:16;;;;;;;1.20;1.10;;;24.40;69.60;;;;;;5086016;28;20444;-88
2022/10/22 06:48:49;;;;;;;0.80;0.80;;;24.40;69.50;;;;;;5094767;28;20450;-87
2022/10/22 06:51:16;;;;;;;0.90;0.80;;;24.40;69.50;;;;;;5094650;28;20928;-87
2022/10/22 06:53:43;;;;;;;0.80;0.80;;;24.40;69.60;;;;;;5094716;28;20457;-89
2022/10/22 06:56:12;;;;;;;1.20;1.10;;;24.40;69.60;;;;;;5077043;28;20451;-86
2022/10/22 06:58:39;;;;;;;0.87;0.80;;;24.40;69.70;;;;;;5094687;28;20459;-86
2022/10/22 07:01:07;;;;;;;1.07;0.97;;;24.40;69.70;;;;;;5094904;28;20492;-87
2022/10/22 07:03:34;;;;;;;1.13;1.03;;;24.40;69.80;;;;;;5094675;28;20448;-89
2022/10/22 07:06:05;;;;;;;3.43;1.10;;;24.40;70.70;;;;;;5094762;28;20452;-88
2022/10/22 07:08:32;;;;;;;1.30;1.10;;;24.40;69.90;;;;;;5094715;28;20466;-87
2022/10/22 07:11:06;;;;;;;0.80;0.80;;;24.40;69.90;;;;;;5094265;28;20439;-90
2022/10/22 07:13:33;;;;;;;1.50;1.10;;;24.40;70.00;;;;;;5094571;28;20450;-87
2022/10/22 07:15:59;;;;;;;1.23;1.13;;;24.40;70.20;;;;;;5094337;28;20926;-90
2022/10/22 07:18:26;;;;;;;0.93;0.90;;;24.40;70.30;;;;;;5094558;28;20444;-90
2022/10/22 07:20:53;;;;;;;3.40;1.10;;;24.40;70.40;;;;;;5094195;28;20487;-87
2022/10/22 07:23:22;;;;;;;1.80;0.90;;;24.40;70.40;;;;;;5093960;28;20452;-87
2022/10/22 07:25:49;;;;;;;1.00;0.90;;;24.40;71.30;;;;;;5093586;28;20443;-87
2022/10/22 07:28:15;;;;;;;1.20;1.10;;;24.40;70.40;;;;;;5093943;28;21191;-88
2022/10/22 07:30:42;;;;;;;1.27;0.90;;;24.40;70.60;;;;;;5093699;28;20465;-87
2022/10/22 07:33:09;;;;;;;1.10;0.93;;;24.40;70.80;;;;;;5093738;28;20866;-89
2022/10/22 07:35:37;;;;;;;1.87;1.03;;;24.50;70.70;;;;;;5073668;28;20439;-87
2022/10/22 07:38:04;;;;;;;1.50;1.40;;;24.50;70.60;;;;;;5073694;28;20448;-87
2022/10/22 07:40:35;;;;;;;1.60;1.40;;;24.40;72.30;;;;;;5072805;28;20477;-89
2022/10/22 07:43:01;;;;;;;2.03;1.33;;;24.40;72.00;;;;;;5073278;28;20481;-87
2022/10/22 07:45:28;;;;;;;3.40;1.47;;;24.50;71.80;;;;;;5073737;28;20445;-90
2022/10/22 07:47:55;;;;;;;1.10;1.00;;;24.40;71.20;;;;;;5073807;28;20812;-88
2022/10/22 07:50:22;;;;;;;1.17;1.07;;;24.50;70.90;;;;;;5073545;28;20438;-87
2022/10/22 07:52:49;;;;;;;1.33;1.17;;;24.50;70.90;;;;;;5073474;28;20455;-87
2022/10/22 07:55:16;;;;;;;1.23;1.13;;;24.50;71.70;;;;;;5073582;28;20812;-88
2022/10/22 07:57:44;;;;;;;1.30;1.20;;;24.50;70.80;;;;;;5073394;28;20439;-87
2022/10/22 08:00:12;;;;;;;1.27;1.10;;;24.60;70.80;;;;;;5073266;28;20485;-89
2022/10/22 08:02:38;;;;;;;1.07;0.97;;;24.60;70.70;;;;;;5073336;28;20447;-86
2022/10/22 08:05:06;;;;;;;2.17;1.10;;;24.60;71.00;;;;;;5073324;28;20449;-87
2022/10/22 08:07:33;;;;;;;2.23;1.10;;;24.60;70.70;;;;;;5073159;28;20441;-87
2022/10/22 08:10:00;;;;;;;2.67;1.40;;;24.70;70.50;;;;;;5073582;28;20451;-87
2022/10/22 08:12:27;;;;;;;1.33;1.17;;;24.70;70.50;;;;;;5073272;28;20438;-87
2022/10/22 08:14:55;;;;;;;1.27;1.13;;;24.70;70.50;;;;;;5073488;28;20805;-87
2022/10/22 08:17:22;;;;;;;2.03;1.30;;;24.70;71.40;;;;;;5073252;28;20434;-87
2022/10/22 08:19:48;;;;;;;1.67;1.53;;;24.70;70.60;;;;;;5073410;28;20437;-87
2022/10/22 08:22:15;;;;;;;2.17;1.43;;;24.70;70.70;;;;;;5073597;28;20449;-87
2022/10/22 08:24:42;;;;;;;1.60;1.30;;;24.70;70.80;;;;;;5073443;28;20956;-87
2022/10/22 08:27:09;;;;;;;1.10;1.00;;;24.70;70.60;;;;;;5073392;28;20449;-86
2022/10/22 08:29:36;;;;;;;4.03;1.10;;;24.70;70.50;;;;;;5073004;28;20473;-86
2022/10/22 08:32:04;;;;;;;1.53;1.30;;;24.90;70.80;;;;;;5072609;28;20441;-86
2022/10/22 08:34:31;;;;;;;1.30;1.10;;;24.70;70.40;;;;;;5072778;28;20814;-86
2022/10/22 08:36:58;;;;;;;4.03;1.20;;;24.70;70.40;;;;;;5072885;28;20445;-87
2022/10/22 08:39:25;;;;;;;2.20;1.20;;;24.70;70.40;;;;;;5073149;28;20450;-87
2022/10/22 08:42:03;;;;;;;1.20;1.10;;;24.70;70.50;;;;;;5072769;28;20493;-87
2022/10/22 08:44:50;;;;;;;3.83;1.90;;;24.70;70.60;;;;;;5086636;28;20469;-86
2022/10/22 08:47:35;;;;;;;1.70;1.40;;;24.70;70.90;;;;;;5093190;28;20443;-87
2022/10/22 08:50:02;;;;;;;2.00;1.57;;;24.60;71.20;;;;;;5093262;28;20784;-86
2022/10/22 08:52:31;;;;;;;4.17;1.90;;;24.60;71.50;;;;;;5096681;28;20451;-86
2022/10/22 08:55:01;;;;;;;2.30;1.90;;;24.60;71.70;;;;;;5096795;28;20451;-86
2022/10/22 08:57:47;;;;;;;2.30;1.57;;;24.70;71.90;;;;;;5096692;28;20445;-87
2022/10/22 09:00:20;;;;;;;3.27;1.77;;;24.70;72.00;;;;;;5096672;28;20509;-86
2022/10/22 09:03:02;;;;;;;10.23;1.50;;;24.60;72.00;;;;;;5096800;28;20446;-86
2022/10/22 09:05:42;;;;;;;1.53;1.43;;;24.60;72.00;;;;;;5096791;28;20441;-87
2022/10/22 09:08:11;;;;;;;2.30;1.40;;;24.60;72.10;;;;;;5096748;28;20433;-86
2022/10/22 09:10:42;;;;;;;3.57;1.67;;;24.60;72.10;;;;;;5079404;28;20436;-87
2022/10/22 09:13:11;;;;;;;2.80;1.27;;;24.60;72.00;;;;;;5076514;28;20429;-87
2022/10/22 09:15:38;;;;;;;1.60;1.50;;;24.50;72.00;;;;;;5076067;28;20448;-85
2022/10/22 09:18:21;;;;;;;3.63;1.80;;;24.50;71.90;;;;;;5076276;28;20445;-92
2022/10/22 09:23:47;;;;;;;1.50;1.40;;;24.60;71.20;;;;;;5033662;28;20458;-88
2022/10/22 09:26:16;;;;;;;1.90;1.80;;;24.50;70.80;;;;;;5059422;28;20940;-88
2022/10/22 09:28:43;;;;;;;3.20;1.70;;;24.50;71.40;;;;;;5076163;28;20448;-88
2022/10/22 09:31:11;;;;;;;2.90;1.70;;;24.50;71.70;;;;;;5058113;28;20814;-87
2022/10/22 09:33:41;;;;;;;2.33;1.40;;;24.50;72.00;;;;;;5076205;28;20441;-94
